Ampere, New Jersey
Current Conditions -  °F | °C
As of 10:51 PM on Saturday 25 Oct 2014 (Local Time) from KEWR Reporting Station
Scattered Clouds Scattered Clouds  
Wind Chill: 61°   Ceiling: Unl
Heat Index: 61°   Visibility: 10mi
Dew Point: 45°   Wind: 14mph
Humidity: 56%   Direction: 230°SW
Pressure: 29.6"   Gusts: NA
Location:  40.7716°N, 74.2073°W
Report Text: KEWR 260251Z 23012KT 10SM SCT070 16/07 A2960 RMK AO2 SLP022 T01610072 56016
Loading
Personal Weather Stations






























Interactive Weather Map
Tropical Storm Tracking
New forecast layout! Learn more

10-Day Weather Forecast

Advertisements
Track Severe Weather on mobile